Flight Track Log - Related Links

Times and Time Zones

All times are in EDT time to prevent confusion due to time zone crossing. See the SKW558T flight status page for this flight to view local times or setup timezone preferences in your user account.

Time Position Orientation Groundspeed Altitude Reporting Facility
EDT Latitude Longitude Course Direction KTS MPH feet Rate Location/Type
Fri 03:53:00 PM 29.9603 -95.3458 124° Southeast 150 173 800  Level Houston Center
Fri 03:54:07 PM 29.9303 -95.2944 124° Southeast 204 235 2,900 1,617 Climbing Houston Center
Fri 03:54:55 PM 29.8983 -95.2406 126° Southeast 237 273 3,900 2,098 Climbing Houston Center
Fri 03:56:10 PM 29.8481 -95.1622 96° East 271 312 7,200 2,450 Climbing Houston Center
Fri 03:56:55 PM 29.8417 -95.0878 77° East 281 323 8,800 2,057 Climbing Houston Center
Fri 03:57:55 PM 29.8608 -94.9925 77° East 317 365 10,800 2,000 Climbing Houston Center
Fri 03:58:55 PM 29.8797 -94.8950 78° East 378 435 12,800 2,050 Climbing Houston Center
Fri 03:59:55 PM 29.8989 -94.7903 76° East 363 418 14,900 1,765 Climbing Houston Center
Fri 04:00:54 PM 29.9225 -94.6783 80° East 345 397 16,300 1,714 Climbing Houston Center
Fri 04:01:54 PM 29.9394 -94.5636 82° East 351 404 18,300 1,785 Climbing Houston Center
Fri 04:02:55 PM 29.9522 -94.4586 79° East 356 410 19,900 1,636 Climbing Houston Center
Fri 04:03:55 PM 29.9714 -94.3392 81° East 368 423 21,600 1,600 Climbing Houston Center
Fri 04:04:55 PM 29.9883 -94.2125 80° East 380 437 23,100 1,500 Climbing Houston Center
Fri 04:05:55 PM 30.0072 -94.0858 81° East 391 450 24,600 1,350 Climbing Houston Center
Fri 04:06:55 PM 30.0242 -93.9544 80° East 401 461 25,800 1,250 Climbing Houston Center
Fri 04:07:55 PM 30.0453 -93.8206 82° East 411 473 27,100 1,100 Climbing Houston Center
Fri 04:08:55 PM 30.0619 -93.6817 81° East 424 488 28,000 1,000 Climbing Houston Center
Fri 04:09:55 PM 30.0831 -93.5236 82° East 443 510 29,100 950 Climbing Houston Center
Fri 04:10:55 PM 30.1017 -93.3778 81° East 448 516 29,900 1,000 Climbing Houston Center
Fri 04:11:55 PM 30.1222 -93.2267 80° East 459 528 31,100 1,100 Climbing Houston Center
Fri 04:12:55 PM 30.1447 -93.0781 75° East 464 534 32,100 1,050 Climbing Houston Center
Fri 04:13:55 PM 30.1775 -92.9344 74° East 469 540 33,200 1,050 Climbing Houston Center
Fri 04:14:55 PM 30.2122 -92.7931 76° East 463 533 34,200 1,008 Climbing Houston Center
Fri 04:15:54 PM 30.2425 -92.6492 76° East 458 527 35,200 900 Climbing Houston Center
Fri 04:16:55 PM 30.2728 -92.5100 75° East 452 520 36,000 700 Climbing Houston Center
Fri 04:17:54 PM 30.3069 -92.3636 78° East 452 520 36,600 600 Climbing Houston Center
Fri 04:18:55 PM 30.3306 -92.2361 76° East 452 520 37,200 600 Climbing Houston Center
Fri 04:19:54 PM 30.3622 -92.0919 75° East 452 520 37,800 706 Climbing Houston Center
Fri 04:20:54 PM 30.3961 -91.9475 76° East 452 520 38,600 595 Climbing Houston Center
Fri 04:21:55 PM 30.4256 -91.8056 74° East 452 520 39,000 198 Climbing Houston Center
Fri 04:22:55 PM 30.4633 -91.6514 78° East 452 520 39,000  Level Houston Center
Fri 04:23:54 PM 30.4861 -91.5236 75° East 447 514 39,000  Level Houston Center
Fri 04:24:54 PM 30.5214 -91.3694 76° East 453 521 39,000  Level Houston Center
Fri 04:25:54 PM 30.5503 -91.2294 75° East 448 516 39,000  Level Houston Center
Fri 04:26:55 PM 30.5831 -91.0869 77° East 448 516 39,000  Level Houston Center
Fri 04:27:54 PM 30.6117 -90.9469 77° East 448 516 39,000  Level Houston Center
Fri 04:28:54 PM 30.6400 -90.8042 76° East 448 516 39,000  Level Houston Center
Fri 04:29:54 PM 30.6703 -90.6664 77° East 448 516 39,000  Level Houston Center
Fri 04:30:55 PM 30.6986 -90.5236 75° East 448 516 39,000  Level Houston Center
Fri 04:31:55 PM 30.7306 -90.3808 77° East 448 516 39,000  Level Houston Center
Fri 04:32:55 PM 30.7583 -90.2378 77° East 448 516 39,000  Level Houston Center
Fri 04:33:55 PM 30.7861 -90.0972 76° East 448 516 39,000  Level Houston Center
Fri 04:34:54 PM 30.8156 -89.9542 77° East 448 516 39,000  Level Houston Center
Fri 04:35:55 PM 30.8431 -89.8133 77° East 448 516 39,000  Level Houston Center
Fri 04:36:55 PM 30.8722 -89.6703 76° East 448 516 39,000  Level Houston Center
Fri 04:37:54 PM 30.9014 -89.5317 79° East 448 516 39,000  Level Houston Center
Fri 04:38:54 PM 30.9261 -89.3858 77° East 448 516 39,000  Level Houston Center
Fri 04:39:54 PM 30.9550 -89.2400 78° East 448 516 39,000  Level Houston Center
Fri 04:40:55 PM 30.9814 -89.0967 77° East 448 516 39,000  Level Houston Center
Fri 04:41:55 PM 31.0100 -88.9553 78° East 448 516 39,000  Level Houston Center
Fri 04:42:55 PM 31.0344 -88.8167 78° East 448 516 39,000  Level Houston Center
Fri 04:43:55 PM 31.0606 -88.6753 76° East 448 516 39,000  Level Houston Center
Fri 04:44:55 PM 31.0925 -88.5289 60° Northeast 453 521 39,000  Level Houston Center
Fri 04:45:55 PM 31.1544 -88.4033 55° Northeast 448 516 39,000  Level Houston Center
Fri 04:46:55 PM 31.2264 -88.2819 53° Northeast 440 506 39,000  Level Houston Center
Fri 04:48:16 PM 31.3242 -88.1297 54° Northeast 489 563 39,000  Level Atlanta Center
Fri 04:49:16 PM 31.3969 -88.0114 55° Northeast 465 535 39,000  Level Atlanta Center
Fri 04:50:16 PM 31.4717 -87.8881 55° Northeast 458 527 39,000  Level Atlanta Center
Fri 04:51:16 PM 31.5444 -87.7669 54° Northeast 458 527 39,000 -100 Level Atlanta Center
Fri 04:52:16 PM 31.6189 -87.6456 55° Northeast 458 527 38,800 -650 Descending Atlanta Center
Fri 04:53:16 PM 31.6933 -87.5217 54° Northeast 458 527 37,700 -1,050 Descending Atlanta Center
Fri 04:54:16 PM 31.7678 -87.4000 56° Northeast 458 527 36,700 -1,050 Descending Atlanta Center
Fri 04:55:16 PM 31.8467 -87.2611 55° Northeast 464 534 35,600 -1,050 Descending Atlanta Center
Fri 04:56:16 PM 31.9206 -87.1389 54° Northeast 464 534 34,600 -1,000 Descending Atlanta Center
Fri 04:57:16 PM 31.9947 -87.0167 55° Northeast 457 526 33,600 -950 Descending Atlanta Center
Fri 04:58:16 PM 32.0578 -86.9086 55° Northeast 457 526 32,700 -950 Descending Atlanta Center
Fri 04:59:16 PM 32.1336 -86.7808 52° Northeast 462 532 31,700 -1,000 Descending Atlanta Center
Fri 05:00:16 PM 32.2156 -86.6558 54° Northeast 470 541 30,700 -1,000 Descending Atlanta Center
Fri 05:01:16 PM 32.2933 -86.5278 60° Northeast 475 547 29,700 -1,000 Descending Atlanta Center
Fri 05:02:16 PM 32.3608 -86.3919 57° Northeast 475 547 28,700 -1,000 Descending Atlanta Center
Fri 05:03:16 PM 32.4300 -86.2658 52° Northeast 463 533 27,700 -1,050 Descending Atlanta Center
Fri 05:04:16 PM 32.5242 -86.1231 56° Northeast 481 554 26,600 -1,050 Descending Atlanta Center
Fri 05:05:16 PM 32.5975 -85.9917 55° Northeast 486 559 25,600 -1,000 Descending Atlanta Center
Fri 05:06:16 PM 32.6725 -85.8650 55° Northeast 480 552 24,600 -1,050 Descending Atlanta Center
Fri 05:07:16 PM 32.7450 -85.7406 56° Northeast 462 532 23,500 -1,000 Descending Atlanta Center
Fri 05:08:16 PM 32.8072 -85.6303 56° Northeast 456 525 22,600 -1,587 Descending Atlanta Center
Fri 05:09:17 PM 32.8756 -85.5081 54° Northeast 451 519 20,300 -2,250 Descending Atlanta Center
Fri 05:10:16 PM 32.9456 -85.3928 57° Northeast 433 498 18,100 -2,067 Descending Atlanta Center
Fri 05:11:16 PM 33.0094 -85.2775 52° Northeast 420 483 16,200 -1,800 Descending Atlanta Center
Fri 05:12:16 PM 33.0836 -85.1644 47° Northeast 409 471 14,500 -1,100 Descending Atlanta Center
Fri 05:13:16 PM 33.1533 -85.0736 48° Northeast 382 440 14,000 -250 Descending Atlanta Center
Fri 05:14:16 PM 33.2144 -84.9922 48° Northeast 348 400 14,000 -550 Level Atlanta Center
Fri 05:15:16 PM 33.2756 -84.9108 49° Northeast 331 381 12,900 -1,050 Descending Atlanta Center
Fri 05:16:16 PM 33.3325 -84.8319 48° Northeast 325 374 11,900 -950 Descending Atlanta Center
Fri 05:17:16 PM 33.3936 -84.7503 48° Northeast 325 374 11,000 -450 Descending Atlanta Center
Fri 05:18:16 PM 33.4503 -84.6736 47° Northeast 315 362 11,000  Level Atlanta Center
Fri 05:19:16 PM 33.5111 -84.5944 68° East 315 362 11,000 -50 Level Atlanta Center
Fri 05:20:16 PM 33.5431 -84.4975 90° East 310 357 10,900 -700 Descending Atlanta Center
Fri 05:21:16 PM 33.5433 -84.3978 83° East 298 343 9,600 -1,273 Descending Atlanta Center
Fri 05:21:55 PM 33.5500 -84.3333 90° East 268 308 8,800 -1,396 Descending Atlanta TRACON
Fri 05:23:55 PM 33.5500 -84.1667 40° Northeast 239 275 5,900 -1,667 Descending Atlanta TRACON
Fri 05:24:55 PM 33.5833 -84.1333 309° West 250 288 3,800 -1,200 Descending Atlanta TRACON
Fri 05:25:55 PM 33.6167 -84.1833 270° West 206 237 3,500 -150 Descending Atlanta TRACON
Fri 05:26:55 PM 33.6167 -84.2500 270° West 190 219 3,500 -400 Level Atlanta TRACON
Fri 05:27:55 PM 33.6167 -84.3167 270° West 187 215 2,700 -800 Descending Atlanta TRACON
Fri 05:28:55 PM 33.6167 -84.3667 270° West 132 152 1,900 -700 Descending Atlanta TRACON
Fri 05:29:55 PM 33.6167 -84.4000 270° West 132 152 1,300 -600 Descending Atlanta TRACON

Login

Don't have an account? Register now (free) for customized features, flight alerts, and more!